sensor_id;sensor_type;location;lat;lon;timestamp;P1;durP1;ratioP1;P2;durP2;ratioP2
13349;SDS011;6744;53.190;6.576;2023-04-03T00:00:52;1.33;;;0.80;;
13349;SDS011;6744;53.190;6.576;2023-04-03T00:03:18;2.33;;;0.80;;
13349;SDS011;6744;53.190;6.576;2023-04-03T00:05:43;1.90;;;0.87;;
13349;SDS011;6744;53.190;6.576;2023-04-03T00:08:09;1.63;;;0.80;;
13349;SDS011;6744;53.190;6.576;2023-04-03T00:10:35;2.97;;;1.13;;
13349;SDS011;6744;53.190;6.576;2023-04-03T00:13:02;2.70;;;0.90;;
13349;SDS011;6744;53.190;6.576;2023-04-03T00:15:28;1.40;;;0.80;;
13349;SDS011;6744;53.190;6.576;2023-04-03T00:17:53;3.10;;;1.00;;
13349;SDS011;6744;53.190;6.576;2023-04-03T00:20:19;2.10;;;1.13;;
13349;SDS011;6744;53.190;6.576;2023-04-03T00:22:44;1.97;;;1.13;;
13349;SDS011;6744;53.190;6.576;2023-04-03T00:25:10;3.27;;;1.50;;
13349;SDS011;6744;53.190;6.576;2023-04-03T00:27:37;2.37;;;1.00;;
13349;SDS011;6744;53.190;6.576;2023-04-03T00:30:03;3.00;;;1.13;;
13349;SDS011;6744;53.190;6.576;2023-04-03T00:32:28;2.57;;;1.20;;
13349;SDS011;6744;53.190;6.576;2023-04-03T00:34:54;1.70;;;0.93;;
13349;SDS011;6744;53.190;6.576;2023-04-03T00:37:19;3.13;;;1.33;;
13349;SDS011;6744;53.190;6.576;2023-04-03T00:39:44;2.73;;;1.20;;
13349;SDS011;6744;53.190;6.576;2023-04-03T00:42:10;1.60;;;1.20;;
13349;SDS011;6744;53.190;6.576;2023-04-03T00:47:01;3.07;;;1.00;;
13349;SDS011;6744;53.190;6.576;2023-04-03T00:49:28;3.00;;;0.97;;
13349;SDS011;6744;53.190;6.576;2023-04-03T00:51:54;1.90;;;0.90;;
13349;SDS011;6744;53.190;6.576;2023-04-03T00:54:20;2.53;;;1.23;;
13349;SDS011;6744;53.190;6.576;2023-04-03T00:56:45;2.43;;;1.10;;
13349;SDS011;6744;53.190;6.576;2023-04-03T00:59:15;1.93;;;1.00;;
13349;SDS011;6744;53.190;6.576;2023-04-03T01:01:42;3.47;;;1.30;;
13349;SDS011;6744;53.190;6.576;2023-04-03T01:06:57;3.50;;;1.43;;
13349;SDS011;6744;53.190;6.576;2023-04-03T01:09:24;3.00;;;1.37;;
13349;SDS011;6744;53.190;6.576;2023-04-03T01:11:51;2.50;;;1.20;;
13349;SDS011;6744;53.190;6.576;2023-04-03T01:14:16;2.97;;;1.10;;
13349;SDS011;6744;53.190;6.576;2023-04-03T01:16:41;2.20;;;1.40;;
13349;SDS011;6744;53.190;6.576;2023-04-03T01:19:07;3.27;;;1.30;;
13349;SDS011;6744;53.190;6.576;2023-04-03T01:21:44;2.40;;;1.20;;
13349;SDS011;6744;53.190;6.576;2023-04-03T01:24:33;3.73;;;1.30;;
13349;SDS011;6744;53.190;6.576;2023-04-03T01:27:00;3.57;;;1.43;;
13349;SDS011;6744;53.190;6.576;2023-04-03T01:29:26;4.50;;;1.40;;
13349;SDS011;6744;53.190;6.576;2023-04-03T01:31:55;2.07;;;1.00;;
13349;SDS011;6744;53.190;6.576;2023-04-03T01:34:22;2.33;;;0.97;;
13349;SDS011;6744;53.190;6.576;2023-04-03T01:36:48;3.37;;;1.17;;
13349;SDS011;6744;53.190;6.576;2023-04-03T01:39:13;2.33;;;1.07;;
13349;SDS011;6744;53.190;6.576;2023-04-03T01:41:39;4.33;;;1.27;;
13349;SDS011;6744;53.190;6.576;2023-04-03T01:44:05;2.30;;;0.90;;
13349;SDS011;6744;53.190;6.576;2023-04-03T01:46:31;3.60;;;1.10;;
13349;SDS011;6744;53.190;6.576;2023-04-03T01:48:56;2.70;;;1.00;;
13349;SDS011;6744;53.190;6.576;2023-04-03T01:51:21;3.00;;;1.20;;
13349;SDS011;6744;53.190;6.576;2023-04-03T01:53:47;2.20;;;1.17;;
13349;SDS011;6744;53.190;6.576;2023-04-03T01:56:12;3.73;;;1.13;;
13349;SDS011;6744;53.190;6.576;2023-04-03T01:58:37;2.90;;;0.90;;
13349;SDS011;6744;53.190;6.576;2023-04-03T02:01:03;1.90;;;1.00;;
13349;SDS011;6744;53.190;6.576;2023-04-03T02:03:28;1.87;;;1.13;;
13349;SDS011;6744;53.190;6.576;2023-04-03T02:05:54;3.10;;;1.20;;
13349;SDS011;6744;53.190;6.576;2023-04-03T02:08:20;2.10;;;1.20;;
13349;SDS011;6744;53.190;6.576;2023-04-03T02:10:48;3.60;;;1.50;;
13349;SDS011;6744;53.190;6.576;2023-04-03T02:13:14;3.23;;;1.17;;
13349;SDS011;6744;53.190;6.576;2023-04-03T02:15:40;2.80;;;1.20;;
13349;SDS011;6744;53.190;6.576;2023-04-03T02:18:05;2.00;;;1.00;;
13349;SDS011;6744;53.190;6.576;2023-04-03T02:20:31;2.93;;;1.17;;
13349;SDS011;6744;53.190;6.576;2023-04-03T02:22:57;1.70;;;1.07;;
13349;SDS011;6744;53.190;6.576;2023-04-03T02:25:22;4.53;;;1.20;;
13349;SDS011;6744;53.190;6.576;2023-04-03T02:27:47;2.53;;;1.00;;
13349;SDS011;6744;53.190;6.576;2023-04-03T02:30:13;3.90;;;1.23;;
13349;SDS011;6744;53.190;6.576;2023-04-03T02:32:39;2.17;;;1.00;;
13349;SDS011;6744;53.190;6.576;2023-04-03T02:35:05;4.47;;;1.43;;
13349;SDS011;6744;53.190;6.576;2023-04-03T02:37:31;2.60;;;1.00;;
13349;SDS011;6744;53.190;6.576;2023-04-03T02:39:56;2.90;;;1.23;;
13349;SDS011;6744;53.190;6.576;2023-04-03T02:42:22;4.07;;;1.40;;
13349;SDS011;6744;53.190;6.576;2023-04-03T02:44:47;2.30;;;1.10;;
13349;SDS011;6744;53.190;6.576;2023-04-03T02:47:13;3.87;;;1.33;;
13349;SDS011;6744;53.190;6.576;2023-04-03T02:49:38;3.80;;;1.40;;
13349;SDS011;6744;53.190;6.576;2023-04-03T02:52:03;2.27;;;1.10;;
13349;SDS011;6744;53.190;6.576;2023-04-03T02:54:29;2.30;;;1.20;;
13349;SDS011;6744;53.190;6.576;2023-04-03T02:56:55;1.80;;;1.03;;
13349;SDS011;6744;53.190;6.576;2023-04-03T02:59:21;4.87;;;1.33;;
13349;SDS011;6744;53.190;6.576;2023-04-03T03:01:47;4.27;;;1.43;;
13349;SDS011;6744;53.190;6.576;2023-04-03T03:04:12;3.70;;;1.20;;
13349;SDS011;6744;53.190;6.576;2023-04-03T03:06:37;3.27;;;1.30;;
13349;SDS011;6744;53.190;6.576;2023-04-03T03:09:03;2.60;;;1.00;;
13349;SDS011;6744;53.190;6.576;2023-04-03T03:11:28;3.70;;;1.47;;
13349;SDS011;6744;53.190;6.576;2023-04-03T03:13:54;2.70;;;1.70;;
13349;SDS011;6744;53.190;6.576;2023-04-03T03:16:20;2.37;;;1.27;;
13349;SDS011;6744;53.190;6.576;2023-04-03T03:18:45;4.27;;;1.47;;
13349;SDS011;6744;53.190;6.576;2023-04-03T03:21:10;2.67;;;1.50;;
13349;SDS011;6744;53.190;6.576;2023-04-03T03:23:36;4.70;;;1.80;;
13349;SDS011;6744;53.190;6.576;2023-04-03T03:26:03;3.10;;;1.80;;
13349;SDS011;6744;53.190;6.576;2023-04-03T03:28:30;4.13;;;2.10;;
13349;SDS011;6744;53.190;6.576;2023-04-03T03:30:56;3.27;;;1.80;;
13349;SDS011;6744;53.190;6.576;2023-04-03T03:33:22;3.13;;;1.87;;
13349;SDS011;6744;53.190;6.576;2023-04-03T03:35:47;3.20;;;1.40;;
13349;SDS011;6744;53.190;6.576;2023-04-03T03:38:12;3.47;;;1.50;;
13349;SDS011;6744;53.190;6.576;2023-04-03T03:40:38;3.57;;;1.30;;
13349;SDS011;6744;53.190;6.576;2023-04-03T03:43:03;2.43;;;1.33;;
13349;SDS011;6744;53.190;6.576;2023-04-03T03:45:29;3.37;;;1.47;;
13349;SDS011;6744;53.190;6.576;2023-04-03T03:47:55;3.37;;;1.37;;
13349;SDS011;6744;53.190;6.576;2023-04-03T03:50:20;3.00;;;1.23;;
13349;SDS011;6744;53.190;6.576;2023-04-03T03:52:45;3.27;;;1.30;;
13349;SDS011;6744;53.190;6.576;2023-04-03T03:55:11;3.10;;;1.43;;
13349;SDS011;6744;53.190;6.576;2023-04-03T03:57:36;3.67;;;1.33;;
13349;SDS011;6744;53.190;6.576;2023-04-03T04:00:02;2.53;;;1.30;;
13349;SDS011;6744;53.190;6.576;2023-04-03T04:02:28;3.93;;;1.20;;
13349;SDS011;6744;53.190;6.576;2023-04-03T04:04:53;7.73;;;1.70;;
13349;SDS011;6744;53.190;6.576;2023-04-03T04:07:18;4.07;;;1.70;;
13349;SDS011;6744;53.190;6.576;2023-04-03T04:09:44;3.30;;;1.40;;
13349;SDS011;6744;53.190;6.576;2023-04-03T04:12:09;3.87;;;1.60;;
13349;SDS011;6744;53.190;6.576;2023-04-03T04:14:35;3.40;;;1.40;;
13349;SDS011;6744;53.190;6.576;2023-04-03T04:17:00;5.50;;;1.80;;
13349;SDS011;6744;53.190;6.576;2023-04-03T04:19:27;4.73;;;1.60;;
13349;SDS011;6744;53.190;6.576;2023-04-03T04:21:52;6.07;;;1.80;;
13349;SDS011;6744;53.190;6.576;2023-04-03T04:24:18;2.73;;;1.60;;
13349;SDS011;6744;53.190;6.576;2023-04-03T04:26:43;4.07;;;1.57;;
13349;SDS011;6744;53.190;6.576;2023-04-03T04:29:09;6.13;;;1.70;;
13349;SDS011;6744;53.190;6.576;2023-04-03T04:31:35;8.43;;;1.60;;
13349;SDS011;6744;53.190;6.576;2023-04-03T04:34:00;5.97;;;1.83;;
13349;SDS011;6744;53.190;6.576;2023-04-03T04:36:26;4.03;;;2.03;;
13349;SDS011;6744;53.190;6.576;2023-04-03T04:38:51;6.23;;;2.33;;
13349;SDS011;6744;53.190;6.576;2023-04-03T04:41:18;4.23;;;2.60;;
13349;SDS011;6744;53.190;6.576;2023-04-03T04:43:47;3.97;;;2.33;;
13349;SDS011;6744;53.190;6.576;2023-04-03T04:46:12;3.57;;;2.60;;
13349;SDS011;6744;53.190;6.576;2023-04-03T04:48:38;5.47;;;2.57;;
13349;SDS011;6744;53.190;6.576;2023-04-03T04:51:03;3.23;;;2.23;;
13349;SDS011;6744;53.190;6.576;2023-04-03T04:53:29;5.43;;;2.53;;
13349;SDS011;6744;53.190;6.576;2023-04-03T04:55:54;7.33;;;2.90;;
13349;SDS011;6744;53.190;6.576;2023-04-03T04:58:20;5.70;;;3.10;;
13349;SDS011;6744;53.190;6.576;2023-04-03T05:00:45;4.13;;;2.57;;
13349;SDS011;6744;53.190;6.576;2023-04-03T05:03:10;7.60;;;3.30;;
13349;SDS011;6744;53.190;6.576;2023-04-03T05:05:36;7.50;;;3.73;;
13349;SDS011;6744;53.190;6.576;2023-04-03T05:08:02;6.23;;;3.80;;
13349;SDS011;6744;53.190;6.576;2023-04-03T05:10:28;5.93;;;3.80;;
13349;SDS011;6744;53.190;6.576;2023-04-03T05:12:53;7.43;;;3.93;;
13349;SDS011;6744;53.190;6.576;2023-04-03T05:15:19;7.43;;;3.87;;
13349;SDS011;6744;53.190;6.576;2023-04-03T05:17:44;7.40;;;3.63;;
13349;SDS011;6744;53.190;6.576;2023-04-03T05:20:10;8.20;;;5.17;;
13349;SDS011;6744;53.190;6.576;2023-04-03T05:22:36;8.30;;;4.23;;
13349;SDS011;6744;53.190;6.576;2023-04-03T05:25:01;8.47;;;5.27;;
13349;SDS011;6744;53.190;6.576;2023-04-03T05:27:26;5.80;;;4.50;;
13349;SDS011;6744;53.190;6.576;2023-04-03T05:29:53;5.80;;;3.57;;
13349;SDS011;6744;53.190;6.576;2023-04-03T05:32:19;6.20;;;4.23;;
13349;SDS011;6744;53.190;6.576;2023-04-03T05:34:45;5.70;;;4.03;;
13349;SDS011;6744;53.190;6.576;2023-04-03T05:37:10;4.70;;;3.10;;
13349;SDS011;6744;53.190;6.576;2023-04-03T05:39:35;5.97;;;3.87;;
13349;SDS011;6744;53.190;6.576;2023-04-03T05:42:01;7.20;;;3.10;;
13349;SDS011;6744;53.190;6.576;2023-04-03T05:44:26;5.10;;;2.93;;
13349;SDS011;6744;53.190;6.576;2023-04-03T05:46:51;7.10;;;2.83;;
13349;SDS011;6744;53.190;6.576;2023-04-03T05:49:17;6.40;;;2.63;;
13349;SDS011;6744;53.190;6.576;2023-04-03T05:51:42;6.87;;;2.57;;
13349;SDS011;6744;53.190;6.576;2023-04-03T05:54:12;4.57;;;2.00;;
13349;SDS011;6744;53.190;6.576;2023-04-03T05:56:41;6.17;;;2.70;;
13349;SDS011;6744;53.190;6.576;2023-04-03T05:59:06;4.87;;;2.60;;
13349;SDS011;6744;53.190;6.576;2023-04-03T06:01:32;7.20;;;3.53;;
13349;SDS011;6744;53.190;6.576;2023-04-03T06:03:59;6.03;;;3.00;;
13349;SDS011;6744;53.190;6.576;2023-04-03T06:06:25;8.63;;;3.23;;
13349;SDS011;6744;53.190;6.576;2023-04-03T06:08:51;5.43;;;2.43;;
13349;SDS011;6744;53.190;6.576;2023-04-03T06:11:16;6.03;;;2.40;;
13349;SDS011;6744;53.190;6.576;2023-04-03T06:13:42;7.00;;;3.00;;
13349;SDS011;6744;53.190;6.576;2023-04-03T06:16:08;5.80;;;2.53;;
13349;SDS011;6744;53.190;6.576;2023-04-03T06:18:36;5.23;;;2.70;;
13349;SDS011;6744;53.190;6.576;2023-04-03T06:21:01;5.67;;;2.87;;
13349;SDS011;6744;53.190;6.576;2023-04-03T06:23:27;5.33;;;3.40;;
13349;SDS011;6744;53.190;6.576;2023-04-03T06:25:53;7.33;;;3.10;;
13349;SDS011;6744;53.190;6.576;2023-04-03T06:28:19;6.30;;;3.13;;
13349;SDS011;6744;53.190;6.576;2023-04-03T06:30:45;5.80;;;2.90;;
13349;SDS011;6744;53.190;6.576;2023-04-03T06:33:10;6.80;;;2.77;;
13349;SDS011;6744;53.190;6.576;2023-04-03T06:35:35;4.37;;;2.30;;
13349;SDS011;6744;53.190;6.576;2023-04-03T06:38:03;3.93;;;2.70;;
13349;SDS011;6744;53.190;6.576;2023-04-03T06:40:34;6.50;;;2.63;;
13349;SDS011;6744;53.190;6.576;2023-04-03T06:42:59;6.67;;;2.53;;
13349;SDS011;6744;53.190;6.576;2023-04-03T06:45:25;5.77;;;2.53;;
13349;SDS011;6744;53.190;6.576;2023-04-03T06:47:50;5.40;;;2.40;;
13349;SDS011;6744;53.190;6.576;2023-04-03T06:50:16;4.60;;;1.83;;
13349;SDS011;6744;53.190;6.576;2023-04-03T06:52:41;5.47;;;2.43;;
13349;SDS011;6744;53.190;6.576;2023-04-03T06:55:07;4.20;;;2.03;;
13349;SDS011;6744;53.190;6.576;2023-04-03T06:57:34;5.10;;;2.03;;
13349;SDS011;6744;53.190;6.576;2023-04-03T07:00:00;4.13;;;1.80;;
13349;SDS011;6744;53.190;6.576;2023-04-03T07:02:25;4.03;;;1.80;;
13349;SDS011;6744;53.190;6.576;2023-04-03T07:04:51;4.50;;;1.77;;
13349;SDS011;6744;53.190;6.576;2023-04-03T07:07:16;6.10;;;2.00;;
13349;SDS011;6744;53.190;6.576;2023-04-03T07:09:42;6.27;;;2.37;;
13349;SDS011;6744;53.190;6.576;2023-04-03T07:12:08;3.20;;;1.90;;
13349;SDS011;6744;53.190;6.576;2023-04-03T07:14:33;4.93;;;1.90;;
13349;SDS011;6744;53.190;6.576;2023-04-03T07:16:58;5.23;;;2.57;;
13349;SDS011;6744;53.190;6.576;2023-04-03T07:19:24;3.27;;;1.90;;
13349;SDS011;6744;53.190;6.576;2023-04-03T07:21:52;4.50;;;2.17;;
13349;SDS011;6744;53.190;6.576;2023-04-03T07:24:18;4.70;;;2.07;;
13349;SDS011;6744;53.190;6.576;2023-04-03T07:26:43;5.87;;;2.27;;
13349;SDS011;6744;53.190;6.576;2023-04-03T07:29:10;5.73;;;2.43;;
13349;SDS011;6744;53.190;6.576;2023-04-03T07:31:35;4.63;;;2.30;;
13349;SDS011;6744;53.190;6.576;2023-04-03T07:34:01;6.27;;;2.30;;
13349;SDS011;6744;53.190;6.576;2023-04-03T07:36:27;5.93;;;2.20;;
13349;SDS011;6744;53.190;6.576;2023-04-03T07:38:52;5.47;;;2.07;;
13349;SDS011;6744;53.190;6.576;2023-04-03T07:41:18;5.20;;;2.00;;
13349;SDS011;6744;53.190;6.576;2023-04-03T07:43:45;4.70;;;2.10;;
13349;SDS011;6744;53.190;6.576;2023-04-03T07:46:12;5.03;;;2.40;;
13349;SDS011;6744;53.190;6.576;2023-04-03T07:48:37;6.93;;;2.10;;
13349;SDS011;6744;53.190;6.576;2023-04-03T07:51:03;3.73;;;1.80;;
13349;SDS011;6744;53.190;6.576;2023-04-03T07:53:29;4.40;;;1.97;;
13349;SDS011;6744;53.190;6.576;2023-04-03T07:55:56;3.90;;;2.10;;
13349;SDS011;6744;53.190;6.576;2023-04-03T07:58:22;3.93;;;1.83;;
13349;SDS011;6744;53.190;6.576;2023-04-03T08:00:47;7.10;;;2.40;;
13349;SDS011;6744;53.190;6.576;2023-04-03T08:03:13;3.50;;;1.80;;
13349;SDS011;6744;53.190;6.576;2023-04-03T08:05:42;6.73;;;1.57;;
13349;SDS011;6744;53.190;6.576;2023-04-03T08:08:09;3.87;;;1.80;;
13349;SDS011;6744;53.190;6.576;2023-04-03T08:10:35;3.97;;;1.63;;
13349;SDS011;6744;53.190;6.576;2023-04-03T08:13:00;5.03;;;2.07;;
13349;SDS011;6744;53.190;6.576;2023-04-03T08:15:26;4.00;;;1.63;;
13349;SDS011;6744;53.190;6.576;2023-04-03T08:17:52;2.67;;;1.50;;
13349;SDS011;6744;53.190;6.576;2023-04-03T08:20:17;3.40;;;1.40;;
13349;SDS011;6744;53.190;6.576;2023-04-03T08:22:42;2.90;;;1.30;;
13349;SDS011;6744;53.190;6.576;2023-04-03T08:25:08;3.07;;;1.60;;
13349;SDS011;6744;53.190;6.576;2023-04-03T08:27:33;3.50;;;1.07;;
13349;SDS011;6744;53.190;6.576;2023-04-03T08:29:59;2.90;;;1.00;;
13349;SDS011;6744;53.190;6.576;2023-04-03T08:32:24;2.73;;;1.20;;
13349;SDS011;6744;53.190;6.576;2023-04-03T08:34:50;3.47;;;1.00;;
13349;SDS011;6744;53.190;6.576;2023-04-03T08:37:15;2.57;;;1.10;;
13349;SDS011;6744;53.190;6.576;2023-04-03T08:39:41;3.27;;;1.20;;
13349;SDS011;6744;53.190;6.576;2023-04-03T08:45:13;1.97;;;1.00;;
13349;SDS011;6744;53.190;6.576;2023-04-03T08:50:41;4.10;;;1.20;;
13349;SDS011;6744;53.190;6.576;2023-04-03T08:53:12;3.27;;;1.13;;
13349;SDS011;6744;53.190;6.576;2023-04-03T08:55:45;2.83;;;1.20;;
13349;SDS011;6744;53.190;6.576;2023-04-03T09:00:41;3.43;;;1.40;;
13349;SDS011;6744;53.190;6.576;2023-04-03T09:03:34;2.30;;;1.30;;
13349;SDS011;6744;53.190;6.576;2023-04-03T09:06:15;1.87;;;1.00;;
13349;SDS011;6744;53.190;6.576;2023-04-03T09:08:49;2.30;;;1.13;;
13349;SDS011;6744;53.190;6.576;2023-04-03T09:13:56;3.73;;;1.20;;
13349;SDS011;6744;53.190;6.576;2023-04-03T09:19:15;2.13;;;1.30;;
13349;SDS011;6744;53.190;6.576;2023-04-03T09:21:45;4.17;;;1.27;;
13349;SDS011;6744;53.190;6.576;2023-04-03T09:24:12;3.70;;;1.43;;
13349;SDS011;6744;53.190;6.576;2023-04-03T09:29:10;2.20;;;1.10;;
13349;SDS011;6744;53.190;6.576;2023-04-03T09:31:42;2.00;;;0.90;;
13349;SDS011;6744;53.190;6.576;2023-04-03T09:34:12;2.50;;;1.10;;
13349;SDS011;6744;53.190;6.576;2023-04-03T09:36:44;2.00;;;1.10;;
13349;SDS011;6744;53.190;6.576;2023-04-03T09:41:41;3.10;;;1.20;;
13349;SDS011;6744;53.190;6.576;2023-04-03T09:44:24;3.27;;;0.97;;
13349;SDS011;6744;53.190;6.576;2023-04-03T09:46:55;2.67;;;1.17;;
13349;SDS011;6744;53.190;6.576;2023-04-03T09:49:20;1.73;;;0.90;;
13349;SDS011;6744;53.190;6.576;2023-04-03T09:51:46;2.17;;;1.10;;
13349;SDS011;6744;53.190;6.576;2023-04-03T09:56:55;2.97;;;0.90;;
13349;SDS011;6744;53.190;6.576;2023-04-03T09:59:24;2.80;;;1.07;;
13349;SDS011;6744;53.190;6.576;2023-04-03T10:01:57;3.07;;;0.90;;
13349;SDS011;6744;53.190;6.576;2023-04-03T10:04:42;2.93;;;1.00;;
13349;SDS011;6744;53.190;6.576;2023-04-03T10:10:16;1.67;;;0.93;;
13349;SDS011;6744;53.190;6.576;2023-04-03T10:12:44;3.07;;;1.10;;
13349;SDS011;6744;53.190;6.576;2023-04-03T10:15:14;2.00;;;1.10;;
13349;SDS011;6744;53.190;6.576;2023-04-03T10:22:56;3.07;;;1.27;;
13349;SDS011;6744;53.190;6.576;2023-04-03T10:25:40;1.90;;;1.10;;
13349;SDS011;6744;53.190;6.576;2023-04-03T10:28:10;1.73;;;0.97;;
13349;SDS011;6744;53.190;6.576;2023-04-03T10:33:24;2.13;;;0.80;;
13349;SDS011;6744;53.190;6.576;2023-04-03T10:38:48;2.33;;;0.90;;
13349;SDS011;6744;53.190;6.576;2023-04-03T10:41:23;2.20;;;0.83;;
13349;SDS011;6744;53.190;6.576;2023-04-03T10:46:50;2.50;;;0.90;;
13349;SDS011;6744;53.190;6.576;2023-04-03T10:52:06;2.73;;;1.00;;
13349;SDS011;6744;53.190;6.576;2023-04-03T10:57:27;2.10;;;0.97;;
13349;SDS011;6744;53.190;6.576;2023-04-03T10:59:55;1.10;;;0.60;;
13349;SDS011;6744;53.190;6.576;2023-04-03T11:02:33;1.63;;;0.77;;
13349;SDS011;6744;53.190;6.576;2023-04-03T11:05:17;1.53;;;0.67;;
13349;SDS011;6744;53.190;6.576;2023-04-03T11:07:55;1.47;;;0.60;;
13349;SDS011;6744;53.190;6.576;2023-04-03T11:10:23;1.20;;;0.53;;
13349;SDS011;6744;53.190;6.576;2023-04-03T11:15:54;1.73;;;0.70;;
13349;SDS011;6744;53.190;6.576;2023-04-03T11:19:03;0.73;;;0.53;;
13349;SDS011;6744;53.190;6.576;2023-04-03T11:21:19;2.20;;;0.70;;
13349;SDS011;6744;53.190;6.576;2023-04-03T11:23:47;1.63;;;0.70;;
13349;SDS011;6744;53.190;6.576;2023-04-03T11:26:19;1.07;;;0.70;;
13349;SDS011;6744;53.190;6.576;2023-04-03T11:28:50;1.50;;;0.80;;
13349;SDS011;6744;53.190;6.576;2023-04-03T11:32:01;3.20;;;0.70;;
13349;SDS011;6744;53.190;6.576;2023-04-03T11:34:42;1.37;;;0.70;;
13349;SDS011;6744;53.190;6.576;2023-04-03T11:39:56;2.20;;;0.90;;
13349;SDS011;6744;53.190;6.576;2023-04-03T11:42:32;1.57;;;0.70;;
13349;SDS011;6744;53.190;6.576;2023-04-03T11:45:15;1.93;;;0.70;;
13349;SDS011;6744;53.190;6.576;2023-04-03T11:47:48;1.47;;;0.60;;
13349;SDS011;6744;53.190;6.576;2023-04-03T12:08:27;1.90;;;0.73;;
13349;SDS011;6744;53.190;6.576;2023-04-03T12:16:28;1.37;;;0.80;;
13349;SDS011;6744;53.190;6.576;2023-04-03T12:29:23;1.93;;;0.70;;
13349;SDS011;6744;53.190;6.576;2023-04-03T12:34:59;1.70;;;0.80;;
13349;SDS011;6744;53.190;6.576;2023-04-03T12:46:21;1.57;;;0.70;;
13349;SDS011;6744;53.190;6.576;2023-04-03T12:51:37;1.23;;;0.83;;
13349;SDS011;6744;53.190;6.576;2023-04-03T12:54:26;1.87;;;0.90;;
13349;SDS011;6744;53.190;6.576;2023-04-03T12:57:11;1.77;;;0.77;;
13349;SDS011;6744;53.190;6.576;2023-04-03T12:59:37;1.67;;;0.60;;
13349;SDS011;6744;53.190;6.576;2023-04-03T13:02:09;1.63;;;0.90;;
13349;SDS011;6744;53.190;6.576;2023-04-03T13:04:43;1.73;;;0.80;;
13349;SDS011;6744;53.190;6.576;2023-04-03T13:07:32;1.70;;;0.80;;
13349;SDS011;6744;53.190;6.576;2023-04-03T13:12:35;1.87;;;0.90;;
13349;SDS011;6744;53.190;6.576;2023-04-03T13:15:27;1.80;;;0.90;;
13349;SDS011;6744;53.190;6.576;2023-04-03T13:17:56;1.50;;;1.03;;
13349;SDS011;6744;53.190;6.576;2023-04-03T13:22:50;2.07;;;0.63;;
13349;SDS011;6744;53.190;6.576;2023-04-03T13:25:16;1.80;;;0.67;;
13349;SDS011;6744;53.190;6.576;2023-04-03T13:27:42;1.63;;;0.60;;
13349;SDS011;6744;53.190;6.576;2023-04-03T13:33:05;1.33;;;0.70;;
13349;SDS011;6744;53.190;6.576;2023-04-03T13:35:42;1.50;;;0.67;;
13349;SDS011;6744;53.190;6.576;2023-04-03T13:40:53;1.33;;;0.53;;
13349;SDS011;6744;53.190;6.576;2023-04-03T13:43:25;2.07;;;0.70;;
13349;SDS011;6744;53.190;6.576;2023-04-03T13:45:54;0.90;;;0.60;;
13349;SDS011;6744;53.190;6.576;2023-04-03T13:48:22;1.37;;;0.80;;
13349;SDS011;6744;53.190;6.576;2023-04-03T13:50:53;2.70;;;0.80;;
13349;SDS011;6744;53.190;6.576;2023-04-03T13:53:22;2.47;;;0.80;;
13349;SDS011;6744;53.190;6.576;2023-04-03T13:56:07;2.90;;;0.90;;
13349;SDS011;6744;53.190;6.576;2023-04-03T13:58:34;1.30;;;0.67;;
13349;SDS011;6744;53.190;6.576;2023-04-03T14:01:20;1.67;;;0.90;;
13349;SDS011;6744;53.190;6.576;2023-04-03T14:06:18;1.70;;;1.10;;
13349;SDS011;6744;53.190;6.576;2023-04-03T14:08:44;1.33;;;0.83;;
13349;SDS011;6744;53.190;6.576;2023-04-03T14:11:15;4.17;;;1.10;;
13349;SDS011;6744;53.190;6.576;2023-04-03T14:13:42;1.80;;;0.87;;
13349;SDS011;6744;53.190;6.576;2023-04-03T14:16:11;1.40;;;0.80;;
13349;SDS011;6744;53.190;6.576;2023-04-03T14:18:38;1.17;;;0.67;;
13349;SDS011;6744;53.190;6.576;2023-04-03T14:21:04;1.50;;;0.63;;
13349;SDS011;6744;53.190;6.576;2023-04-03T14:23:29;2.73;;;0.97;;
13349;SDS011;6744;53.190;6.576;2023-04-03T14:25:55;1.63;;;0.80;;
13349;SDS011;6744;53.190;6.576;2023-04-03T14:28:21;1.70;;;0.90;;
13349;SDS011;6744;53.190;6.576;2023-04-03T14:30:48;1.10;;;0.80;;
13349;SDS011;6744;53.190;6.576;2023-04-03T14:33:17;1.50;;;0.80;;
13349;SDS011;6744;53.190;6.576;2023-04-03T14:35:44;2.23;;;0.97;;
13349;SDS011;6744;53.190;6.576;2023-04-03T14:38:29;2.77;;;1.00;;
13349;SDS011;6744;53.190;6.576;2023-04-03T14:40:55;2.20;;;0.93;;
13349;SDS011;6744;53.190;6.576;2023-04-03T14:43:21;2.30;;;0.90;;
13349;SDS011;6744;53.190;6.576;2023-04-03T14:45:47;1.50;;;0.73;;
13349;SDS011;6744;53.190;6.576;2023-04-03T14:48:19;1.30;;;0.80;;
13349;SDS011;6744;53.190;6.576;2023-04-03T14:50:46;2.57;;;1.00;;
13349;SDS011;6744;53.190;6.576;2023-04-03T14:53:12;2.07;;;0.90;;
13349;SDS011;6744;53.190;6.576;2023-04-03T14:55:39;1.70;;;0.70;;
13349;SDS011;6744;53.190;6.576;2023-04-03T14:58:13;1.57;;;0.60;;
13349;SDS011;6744;53.190;6.576;2023-04-03T15:00:43;1.83;;;0.90;;
13349;SDS011;6744;53.190;6.576;2023-04-03T15:03:16;0.90;;;0.60;;
13349;SDS011;6744;53.190;6.576;2023-04-03T15:05:44;2.10;;;0.70;;
13349;SDS011;6744;53.190;6.576;2023-04-03T15:10:46;1.30;;;0.80;;
13349;SDS011;6744;53.190;6.576;2023-04-03T15:13:12;2.43;;;1.00;;
13349;SDS011;6744;53.190;6.576;2023-04-03T15:15:37;2.10;;;0.90;;
13349;SDS011;6744;53.190;6.576;2023-04-03T15:18:03;2.40;;;0.90;;
13349;SDS011;6744;53.190;6.576;2023-04-03T15:20:29;1.50;;;0.80;;
13349;SDS011;6744;53.190;6.576;2023-04-03T15:22:56;1.93;;;0.80;;
13349;SDS011;6744;53.190;6.576;2023-04-03T15:25:22;1.57;;;0.90;;
13349;SDS011;6744;53.190;6.576;2023-04-03T15:27:47;1.70;;;0.90;;
13349;SDS011;6744;53.190;6.576;2023-04-03T15:30:14;1.53;;;0.80;;
13349;SDS011;6744;53.190;6.576;2023-04-03T15:32:40;1.93;;;0.90;;
13349;SDS011;6744;53.190;6.576;2023-04-03T15:35:06;1.47;;;0.90;;
13349;SDS011;6744;53.190;6.576;2023-04-03T15:37:31;2.27;;;0.83;;
13349;SDS011;6744;53.190;6.576;2023-04-03T15:39:57;1.60;;;0.80;;
13349;SDS011;6744;53.190;6.576;2023-04-03T15:42:22;1.60;;;0.70;;
13349;SDS011;6744;53.190;6.576;2023-04-03T15:44:48;3.13;;;0.80;;
13349;SDS011;6744;53.190;6.576;2023-04-03T15:47:13;1.23;;;0.60;;
13349;SDS011;6744;53.190;6.576;2023-04-03T15:49:38;2.00;;;0.67;;
13349;SDS011;6744;53.190;6.576;2023-04-03T15:52:04;1.33;;;0.60;;
13349;SDS011;6744;53.190;6.576;2023-04-03T15:54:29;1.60;;;0.60;;
13349;SDS011;6744;53.190;6.576;2023-04-03T15:56:55;1.53;;;0.67;;
13349;SDS011;6744;53.190;6.576;2023-04-03T15:59:20;2.20;;;0.43;;
13349;SDS011;6744;53.190;6.576;2023-04-03T16:01:46;1.17;;;0.47;;
13349;SDS011;6744;53.190;6.576;2023-04-03T16:04:12;1.97;;;0.57;;
13349;SDS011;6744;53.190;6.576;2023-04-03T16:06:38;0.90;;;0.70;;
13349;SDS011;6744;53.190;6.576;2023-04-03T16:09:03;1.50;;;0.70;;
13349;SDS011;6744;53.190;6.576;2023-04-03T16:11:29;0.77;;;0.40;;
13349;SDS011;6744;53.190;6.576;2023-04-03T16:13:55;1.40;;;0.70;;
13349;SDS011;6744;53.190;6.576;2023-04-03T16:16:20;1.60;;;0.63;;
13349;SDS011;6744;53.190;6.576;2023-04-03T16:18:46;2.20;;;0.70;;
13349;SDS011;6744;53.190;6.576;2023-04-03T16:21:12;1.00;;;0.60;;
13349;SDS011;6744;53.190;6.576;2023-04-03T16:23:38;2.60;;;0.60;;
13349;SDS011;6744;53.190;6.576;2023-04-03T16:26:04;1.60;;;0.60;;
13349;SDS011;6744;53.190;6.576;2023-04-03T16:28:30;1.63;;;1.00;;
13349;SDS011;6744;53.190;6.576;2023-04-03T16:30:55;1.57;;;0.60;;
13349;SDS011;6744;53.190;6.576;2023-04-03T16:33:20;1.97;;;0.60;;
13349;SDS011;6744;53.190;6.576;2023-04-03T16:35:47;1.97;;;0.70;;
13349;SDS011;6744;53.190;6.576;2023-04-03T16:38:13;1.27;;;0.67;;
13349;SDS011;6744;53.190;6.576;2023-04-03T16:40:40;2.30;;;0.77;;
13349;SDS011;6744;53.190;6.576;2023-04-03T16:43:05;1.13;;;0.60;;
13349;SDS011;6744;53.190;6.576;2023-04-03T16:45:31;1.80;;;0.70;;
13349;SDS011;6744;53.190;6.576;2023-04-03T16:47:56;1.10;;;0.60;;
13349;SDS011;6744;53.190;6.576;2023-04-03T16:50:21;1.70;;;0.80;;
13349;SDS011;6744;53.190;6.576;2023-04-03T16:52:47;2.17;;;0.70;;
13349;SDS011;6744;53.190;6.576;2023-04-03T16:55:12;1.10;;;0.67;;
13349;SDS011;6744;53.190;6.576;2023-04-03T16:57:38;2.87;;;1.00;;
13349;SDS011;6744;53.190;6.576;2023-04-03T17:00:03;1.97;;;0.77;;
13349;SDS011;6744;53.190;6.576;2023-04-03T17:02:30;2.30;;;0.90;;